Time;durP1;ratioP1;P1;durP2;ratioP2;P2;SDS_P1;SDS_P2;PMS_P1;PMS_P2;Temp;Humidity;BMP_temperature;BMP_pressure;BME280_temperature;BME280_humidity;BME280_pressure;Samples;Min_cycle;Max_cycle;Signal;HPM_P1;HPM_P2
2022/05/18 00:02:06;;;;;;;10.80;7.43;;;;;;;19.04;100.00;99804.22;5112228;28;20201;-76
2022/05/18 00:04:33;;;;;;;7.68;6.88;;;;;;;19.21;100.00;99815.19;5112563;28;20640;-76
2022/05/18 00:07:00;;;;;;;6.65;5.95;;;;;;;19.19;100.00;99767.91;5112545;28;20661;-76
2022/05/18 00:09:26;;;;;;;7.10;5.78;;;;;;;19.42;100.00;99808.56;5112278;28;20201;-76
2022/05/18 00:11:55;;;;;;;8.75;6.10;;;;;;;19.17;100.00;99764.47;5112281;28;20205;-75
2022/05/18 00:14:21;;;;;;;6.95;6.35;;;;;;;19.37;100.00;99790.25;5112657;28;20208;-76
2022/05/18 00:16:48;;;;;;;5.72;4.25;;;;;;;19.17;100.00;99788.13;5112083;28;20221;-75
2022/05/18 00:19:15;;;;;;;7.95;7.15;;;;;;;19.44;100.00;99785.75;5112532;28;20186;-76
2022/05/18 00:21:42;;;;;;;9.30;5.75;;;;;;;19.29;100.00;99787.84;5112302;28;20205;-76
2022/05/18 00:24:10;;;;;;;8.00;6.32;;;;;;;19.27;100.00;99771.22;5076287;28;20664;-75
2022/05/18 00:26:37;;;;;;;11.27;5.75;;;;;;;19.31;100.00;99779.88;5112682;28;20237;-75
2022/05/18 00:29:05;;;;;;;6.80;6.30;;;;;;;19.44;100.00;99783.13;5112329;28;20255;-76
2022/05/18 00:31:32;;;;;;;5.03;4.63;;;;;;;18.85;100.00;99695.22;5111864;28;20197;-76
2022/05/18 00:33:59;;;;;;;7.20;6.50;;;;;;;19.20;100.00;99740.72;5112317;28;20200;-76
2022/05/18 00:36:26;;;;;;;6.57;5.78;;;;;;;19.35;100.00;99765.78;5111118;28;20229;-76
2022/05/18 00:38:52;;;;;;;7.82;6.43;;;;;;;19.45;100.00;99761.16;5111753;28;20243;-76
2022/05/18 00:41:22;;;;;;;8.65;7.25;;;;;;;19.16;100.00;99720.69;5111580;28;20561;-76
2022/05/18 00:43:52;;;;;;;7.65;6.85;;;;;;;19.50;100.00;99752.25;5111982;28;20194;-77
2022/05/18 00:46:20;;;;;;;8.63;6.35;;;;;;;19.25;100.00;99709.94;5111715;28;20609;-75
2022/05/18 00:48:47;;;;;;;7.30;6.63;;;;;;;19.38;100.00;99744.66;5111781;28;20625;-75
2022/05/18 00:51:18;;;;;;;6.72;6.13;;;;;;;19.50;100.00;99738.25;5112020;28;20202;-75
2022/05/18 00:53:50;;;;;;;6.85;6.35;;;;;;;19.51;100.00;99727.66;5111856;28;20193;-76
2022/05/18 00:56:21;;;;;;;11.70;6.65;;;;;;;19.22;100.00;99706.53;5111664;28;20201;-75
2022/05/18 00:58:53;;;;;;;7.00;6.43;;;;;;;19.26;100.00;99698.50;5111620;28;20221;-75
2022/05/18 01:01:21;;;;;;;8.48;5.72;;;;;;;19.12;100.00;99670.88;5075544;28;20652;-76
2022/05/18 01:03:51;;;;;;;4.72;4.00;;;;;;;19.30;100.00;99712.44;5111326;28;20616;-75
2022/05/18 01:06:24;;;;;;;8.82;6.03;;;;;;;19.15;100.00;99700.56;5111557;28;20254;-76
2022/05/18 01:09:00;;;;;;;7.07;6.38;;;;;;;19.12;100.00;99721.66;5111490;28;20906;-77
2022/05/18 01:11:27;;;;;;;5.78;5.22;;;;;;;19.11;100.00;99725.22;5110790;28;20200;-74
2022/05/18 01:13:54;;;;;;;6.13;5.63;;;;;;;19.11;100.00;99735.72;5071572;28;20206;-76
2022/05/18 01:16:24;;;;;;;6.82;6.18;;;;;;;19.03;100.00;99707.91;5091349;28;20255;-75
2022/05/18 01:18:52;;;;;;;7.85;5.75;;;;;;;19.18;100.00;99723.28;5109293;28;20312;-75
2022/05/18 01:21:18;;;;;;;6.55;5.95;;;;;;;18.99;100.00;99708.88;5111307;28;20250;-76
2022/05/18 01:23:55;;;;;;;7.55;6.60;;;;;;;19.04;100.00;99726.25;5111057;28;20193;-75
2022/05/18 01:26:38;;;;;;;5.60;5.07;;;;;;;19.22;100.00;99733.69;5111869;28;20193;-75
2022/05/18 01:29:06;;;;;;;6.30;5.70;;;;;;;18.72;100.00;99707.78;5110872;28;20271;-75
2022/05/18 01:31:46;;;;;;;8.68;7.07;;;;;;;19.03;100.00;99721.03;5111292;28;20236;-76
2022/05/18 01:34:13;;;;;;;8.60;6.22;;;;;;;19.04;100.00;99734.16;5074789;28;20197;-76
2022/05/18 01:36:40;;;;;;;5.68;5.15;;;;;;;19.04;100.00;99733.28;5111060;28;20652;-76
2022/05/18 01:39:12;;;;;;;8.57;6.53;;;;;;;19.13;100.00;99736.53;5110994;28;20193;-76
2022/05/18 01:41:51;;;;;;;6.10;5.50;;;;;;;19.33;100.00;99742.13;5110597;28;20261;-75
2022/05/18 01:44:18;;;;;;;6.85;6.03;;;;;;;19.43;100.00;99736.69;5110930;28;20201;-76
2022/05/18 01:46:46;;;;;;;5.65;5.05;;;;;;;19.32;100.00;99729.03;5111243;28;20205;-75
2022/05/18 01:49:12;;;;;;;5.88;4.78;;;;;;;19.20;100.00;99719.69;5110849;28;20636;-75
2022/05/18 01:51:43;;;;;;;5.57;5.05;;;;;;;19.07;100.00;99713.03;5110389;28;20208;-75
2022/05/18 01:54:10;;;;;;;4.93;4.53;;;;;;;19.24;100.00;99731.00;5111147;28;20197;-75
2022/05/18 01:56:38;;;;;;;4.63;4.32;;;;;;;19.44;100.00;99735.78;5110918;28;20216;-75
2022/05/18 01:59:07;;;;;;;5.13;4.72;;;;;;;19.05;100.00;99692.97;5110349;28;20244;-75
2022/05/18 02:01:34;;;;;;;3.42;3.08;;;;;;;19.06;100.00;99699.94;5074512;28;20254;-75
2022/05/18 02:04:00;;;;;;;5.47;4.97;;;;;;;19.26;100.00;99726.59;5110732;28;20661;-75
2022/05/18 02:06:29;;;;;;;5.22;4.80;;;;;;;19.24;100.00;99710.84;5110483;28;20190;-75
2022/05/18 02:08:58;;;;;;;4.82;3.97;;;;;;;19.28;100.00;99720.38;5110785;28;20200;-76
2022/05/18 02:11:25;;;;;;;5.32;4.82;;;;;;;19.07;100.00;99686.75;5110619;28;20293;-76
2022/05/18 02:13:52;;;;;;;4.70;4.30;;;;;;;19.33;100.00;99730.78;5110712;28;20194;-76
2022/05/18 02:16:20;;;;;;;4.50;3.95;;;;;;;19.44;100.00;99725.28;5110815;28;20300;-76
2022/05/18 02:18:47;;;;;;;5.40;4.90;;;;;;;19.40;100.00;99736.72;5110276;28;20926;-76
2022/05/18 02:21:14;;;;;;;3.92;3.63;;;;;;;19.44;100.00;99739.25;5110611;28;20266;-77
2022/05/18 02:23:42;;;;;;;4.18;3.78;;;;;;;18.95;100.00;99660.78;5110733;28;20201;-75
2022/05/18 02:26:10;;;;;;;4.60;4.20;;;;;;;19.15;100.00;99721.59;5111559;28;20648;-77
2022/05/18 02:28:37;;;;;;;4.25;3.85;;;;;;;19.17;100.00;99719.78;5114243;28;20709;-76
2022/05/18 02:31:04;;;;;;;5.20;3.72;;;;;;;19.04;100.00;99676.34;5114233;28;20222;-75
2022/05/18 02:33:33;;;;;;;3.72;3.42;;;;;;;19.33;100.00;99722.03;5114310;28;20201;-75
2022/05/18 02:36:00;;;;;;;4.00;3.70;;;;;;;19.37;100.00;99729.78;5114710;28;20201;-75
2022/05/18 02:38:26;;;;;;;4.65;3.63;;;;;;;19.33;100.00;99726.34;5113522;28;20225;-75
2022/05/18 02:40:57;;;;;;;4.97;4.50;;;;;;;19.36;100.00;99730.69;5114610;28;20225;-75
2022/05/18 02:43:24;;;;;;;4.60;3.55;;;;;;;19.42;100.00;99737.56;5113828;28;20212;-75
2022/05/18 02:46:00;;;;;;;5.60;3.42;;;;;;;19.25;100.00;99723.09;5114588;28;20205;-75
2022/05/18 02:48:27;;;;;;;4.50;4.20;;;;;;;19.31;100.00;99728.19;5114125;28;20193;-76
2022/05/18 02:50:55;;;;;;;7.05;4.38;;;;;;;19.29;100.00;99713.34;5114082;28;20193;-75
2022/05/18 02:53:22;;;;;;;4.30;3.92;;;;;;;19.35;100.00;99712.31;5113966;28;20196;-75
2022/05/18 02:56:06;;;;;;;7.22;4.68;;;;;;;19.35;100.00;99720.22;5113904;28;20190;-75
2022/05/18 02:58:33;;;;;;;5.85;4.43;;;;;;;19.28;100.00;99722.13;5099045;28;20217;-75
2022/05/18 03:01:00;;;;;;;4.78;4.38;;;;;;;18.94;100.00;99685.34;5113923;28;20744;-75
2022/05/18 03:03:27;;;;;;;6.00;4.50;;;;;;;19.00;100.00;99700.97;5112941;28;20597;-75
2022/05/18 03:05:55;;;;;;;4.90;4.50;;;;;;;19.12;100.00;99710.31;5114054;28;20584;-77
2022/05/18 03:08:22;;;;;;;4.20;3.90;;;;;;;19.28;100.00;99730.88;5077617;28;20213;-76
2022/05/18 03:10:49;;;;;;;5.53;4.80;;;;;;;19.36;100.00;99724.56;5112861;28;20198;-76
2022/05/18 03:13:16;;;;;;;3.53;3.25;;;;;;;19.17;100.00;99709.28;5113161;28;21648;-75
2022/05/18 03:15:43;;;;;;;4.18;3.88;;;;;;;19.09;100.00;99729.63;5113713;28;20258;-75
2022/05/18 03:18:10;;;;;;;5.22;4.25;;;;;;;19.04;100.00;99700.00;5113197;28;20696;-75
2022/05/18 03:23:34;;;;;;;4.50;3.70;;;;;;;19.22;100.00;99722.31;5113074;28;20208;-75
2022/05/18 03:26:01;;;;;;;5.38;4.60;;;;;;;18.86;100.00;99663.66;5099940;28;20189;-75
2022/05/18 03:28:28;;;;;;;4.15;3.75;;;;;;;18.70;100.00;99660.53;5113593;28;20201;-75
2022/05/18 03:30:55;;;;;;;4.22;3.90;;;;;;;19.19;100.00;99738.16;5113399;28;20210;-77
2022/05/18 03:33:22;;;;;;;3.92;3.63;;;;;;;19.29;100.00;99740.50;5113067;28;20209;-75
2022/05/18 03:35:50;;;;;;;4.03;3.65;;;;;;;19.36;100.00;99740.34;5113494;28;20300;-75
2022/05/18 03:38:18;;;;;;;4.43;3.95;;;;;;;19.31;100.00;99743.94;5112194;28;20244;-75
2022/05/18 03:40:46;;;;;;;5.38;4.28;;;;;;;19.33;100.00;99746.56;5113457;28;20206;-76
2022/05/18 03:43:13;;;;;;;2.92;2.72;;;;;;;19.36;100.00;99745.59;5093858;28;20194;-76
2022/05/18 03:45:40;;;;;;;3.22;3.00;;;;;;;19.27;100.00;99737.03;5113422;28;20213;-76
2022/05/18 03:48:11;;;;;;;3.22;3.03;;;;;;;19.31;100.00;99754.47;5112937;28;20197;-76
2022/05/18 03:50:39;;;;;;;3.83;3.55;;;;;;;19.28;100.00;99740.53;5112275;28;20199;-76
2022/05/18 03:53:07;;;;;;;3.70;3.47;;;;;;;19.38;100.00;99764.81;5113008;28;20241;-75
2022/05/18 03:55:35;;;;;;;5.32;3.25;;;;;;;19.42;100.00;99772.63;5112354;28;20539;-76
2022/05/18 03:58:03;;;;;;;3.70;3.50;;;;;;;19.46;100.00;99773.41;5112756;28;20233;-76
2022/05/18 04:00:32;;;;;;;3.88;3.58;;;;;;;19.23;100.00;99753.78;5112891;28;20193;-75
2022/05/18 04:02:59;;;;;;;5.30;3.97;;;;;;;19.53;100.00;99780.25;5112689;28;20206;-76
2022/05/18 04:05:26;;;;;;;4.80;4.05;;;;;;;19.52;100.00;99768.84;5112212;28;20194;-76
2022/05/18 04:07:53;;;;;;;3.53;3.33;;;;;;;19.57;100.00;99787.16;5112599;28;20200;-76
2022/05/18 04:10:20;;;;;;;4.88;3.50;;;;;;;19.73;100.00;99785.81;5112572;28;20204;-76
2022/05/18 04:12:47;;;;;;;4.10;3.75;;;;;;;19.52;100.00;99791.66;5112436;28;20201;-76
2022/05/18 04:15:17;;;;;;;4.28;3.70;;;;;;;19.28;100.00;99749.28;5112215;28;20205;-76
2022/05/18 04:17:45;;;;;;;6.18;3.78;;;;;;;19.21;100.00;99739.84;5111398;28;20220;-76
2022/05/18 04:20:13;;;;;;;4.22;3.90;;;;;;;19.25;100.00;99741.50;5092443;28;20727;-76
2022/05/18 04:22:40;;;;;;;4.95;4.35;;;;;;;19.68;100.00;99800.88;5095924;28;20229;-75
2022/05/18 04:25:09;;;;;;;8.40;4.70;;;;;;;19.63;100.00;99808.88;5112092;28;20205;-76
2022/05/18 04:27:36;;;;;;;7.72;4.15;;;;;;;19.64;100.00;99807.13;5112071;28;20202;-77
2022/05/18 04:30:03;;;;;;;5.32;4.30;;;;;;;19.71;100.00;99814.81;5112309;28;20198;-76
2022/05/18 04:32:31;;;;;;;6.85;5.03;;;;;;;19.69;100.00;99792.09;5088969;28;20696;-77
2022/05/18 04:34:58;;;;;;;5.05;4.65;;;;;;;19.56;100.00;99819.59;5087680;28;20684;-77
2022/05/18 04:37:25;;;;;;;7.80;4.30;;;;;;;19.40;100.00;99807.72;5075833;28;20719;-76
2022/05/18 04:39:51;;;;;;;6.95;4.47;;;;;;;19.44;100.00;99826.03;5076018;28;20701;-76
2022/05/18 04:42:22;;;;;;;4.97;4.57;;;;;;;19.57;100.00;99848.50;5112115;28;20833;-77
2022/05/18 04:44:49;;;;;;;8.38;4.10;;;;;;;19.46;100.00;99882.09;5103478;28;20281;-76
2022/05/18 04:47:16;;;;;;;4.13;2.47;;;;;;;18.15;100.00;99915.50;5111984;28;20193;-75
2022/05/18 04:49:44;;;;;;;2.92;1.60;;;;;;;17.60;100.00;99912.09;5110961;28;20201;-75
2022/05/18 04:52:11;;;;;;;4.20;2.10;;;;;;;16.82;100.00;99923.69;5097620;28;20197;-75
2022/05/18 04:54:38;;;;;;;2.42;1.90;;;;;;;16.32;100.00;99903.31;5107592;28;20262;-73
2022/05/18 04:57:05;;;;;;;3.38;1.88;;;;;;;15.71;100.00;99908.28;5111733;28;20254;-73
2022/05/18 04:59:32;;;;;;;6.43;2.50;;;;;;;15.27;100.00;99905.09;5111615;28;20278;-74
2022/05/18 05:01:59;;;;;;;10.93;4.25;;;;;;;15.23;100.00;99899.03;5112176;28;20196;-74
2022/05/18 05:04:26;;;;;;;2.83;1.60;;;;;;;14.77;100.00;99874.06;5104550;28;20206;-74
2022/05/18 05:06:54;;;;;;;3.58;2.40;;;;;;;15.08;100.00;99906.97;5091774;28;20228;-74
2022/05/18 05:09:22;;;;;;;3.90;2.15;;;;;;;14.60;100.00;99887.22;5091629;28;20233;-73
2022/05/18 05:11:49;;;;;;;2.22;2.05;;;;;;;14.58;100.00;99890.69;5056269;28;20205;-74
2022/05/18 05:14:16;;;;;;;3.05;2.63;;;;;;;14.86;100.00;99913.19;5091616;28;20205;-75
2022/05/18 05:16:42;;;;;;;26.67;12.60;;;;;;;14.87;100.00;99922.75;5099664;28;20193;-72
2022/05/18 05:19:09;;;;;;;2.70;2.10;;;;;;;14.69;100.00;99930.66;5111870;28;20626;-76
2022/05/18 05:21:41;;;;;;;3.63;2.60;;;;;;;14.77;100.00;99934.09;5111745;28;20224;-75
2022/05/18 05:24:09;;;;;;;2.92;2.72;;;;;;;14.56;100.00;99889.81;5111736;27;20197;-73
2022/05/18 05:26:36;;;;;;;2.17;1.88;;;;;;;14.60;100.00;99930.69;5111228;28;20213;-74
2022/05/18 05:29:03;;;;;;;2.20;2.10;;;;;;;14.52;100.00;99922.06;5091485;28;20202;-74
2022/05/18 05:31:31;;;;;;;7.13;2.97;;;;;;;14.78;100.00;99935.84;5089641;28;20219;-75
2022/05/18 05:33:59;;;;;;;3.70;2.42;;;;;;;14.74;100.00;99949.78;5087705;28;20654;-74
2022/05/18 05:36:26;;;;;;;2.35;2.08;;;;;;;14.60;100.00;99954.19;5109691;28;20233;-74
2022/05/18 05:38:53;;;;;;;4.57;2.15;;;;;;;14.48;100.00;99977.72;5104143;28;20229;-73
2022/05/18 05:41:22;;;;;;;3.92;2.22;;;;;;;14.39;100.00;99984.69;5091325;28;20198;-74
2022/05/18 05:43:50;;;;;;;4.78;2.90;;;;;;;14.10;100.00;99949.03;5063458;28;20258;-73
2022/05/18 05:46:17;;;;;;;3.50;3.20;;;;;;;14.61;100.00;100005.50;5091360;28;20195;-74
2022/05/18 05:48:46;;;;;;;4.63;3.15;;;;;;;14.21;100.00;99987.28;5102436;28;20201;-74
2022/05/18 05:51:15;;;;;;;2.00;1.80;;;;;;;14.18;100.00;100000.31;5110045;28;20286;-74
2022/05/18 05:53:43;;;;;;;2.85;2.65;;;;;;;14.38;100.00;100011.63;5109879;28;20212;-74
2022/05/18 05:56:11;;;;;;;5.57;2.08;;;;;;;13.95;100.00;99989.03;5110031;28;20201;-74
2022/05/18 05:58:41;;;;;;;4.40;2.00;;;;;;;14.07;100.00;100033.34;5109817;28;20225;-74
2022/05/18 06:01:10;;;;;;;5.45;2.78;;;;;;;14.08;100.00;100035.09;5112683;28;20194;-74
2022/05/18 06:03:37;;;;;;;2.85;2.65;;;;;;;14.04;100.00;100043.78;5115208;28;20220;-75
2022/05/18 06:06:05;;;;;;;8.48;2.17;;;;;;;13.89;100.00;100044.66;5102800;28;20206;-75
2022/05/18 06:08:32;;;;;;;2.70;2.60;;;;;;;14.11;100.00;100057.69;5094740;28;20209;-75
2022/05/18 06:10:59;;;;;;;2.55;2.35;;;;;;;13.74;100.00;100033.31;5094851;28;20202;-76
2022/05/18 06:13:27;;;;;;;3.17;2.97;;;;;;;13.82;100.00;100042.03;5094629;28;20263;-76
2022/05/18 06:15:56;;;;;;;2.63;1.83;;;;;;;13.93;100.00;100081.13;5094614;28;20204;-75
2022/05/18 06:18:22;;;;;;;5.10;2.72;;;;;;;13.63;100.00;100092.34;5094463;28;20254;-75
2022/05/18 06:20:49;;;;;;;1.88;1.77;;;;;;;13.58;100.00;100100.19;5058484;28;20256;-75
2022/05/18 06:23:17;;;;;;;2.30;2.10;;;;;;;13.56;100.00;100101.00;5094441;28;20194;-75
2022/05/18 06:25:46;;;;;;;4.78;1.98;;;;;;;13.31;100.00;100072.28;5094335;28;20194;-75
2022/05/18 06:28:13;;;;;;;1.65;1.60;;;;;;;13.60;100.00;100102.75;5094109;28;20677;-76
2022/05/18 06:30:41;;;;;;;3.28;2.08;;;;;;;13.78;100.00;100100.22;5068498;28;20205;-77
2022/05/18 06:33:10;;;;;;;1.48;1.48;;;;;;;13.81;100.00;100092.41;5108629;28;20574;-75
2022/05/18 06:35:37;;;;;;;2.15;1.95;;;;;;;13.75;100.00;100095.88;5114359;28;20688;-75
2022/05/18 06:38:10;;;;;;;2.80;2.42;;;;;;;13.87;100.00;100108.94;5106086;28;20225;-75
2022/05/18 06:43:23;;;;;;;2.38;2.17;;;;;;;13.75;100.00;100116.72;5104900;28;20257;-75
2022/05/18 06:45:50;;;;;;;2.63;2.03;;;;;;;13.51;100.00;100118.38;5114990;28;20212;-76
2022/05/18 06:48:18;;;;;;;1.70;1.60;;;;;;;13.32;100.00;100139.13;5114912;28;20198;-75
2022/05/18 06:50:45;;;;;;;2.15;1.95;;;;;;;13.04;100.00;100146.75;5114425;28;20197;-75
2022/05/18 06:53:11;;;;;;;1.88;1.77;;;;;;;12.92;100.00;100168.34;5114521;28;20242;-77
2022/05/18 06:55:38;;;;;;;7.70;2.42;;;;;;;12.67;100.00;100195.06;5114638;28;20282;-76
2022/05/18 06:58:05;;;;;;;2.00;1.90;;;;;;;12.73;100.00;100200.31;5114627;28;20190;-76
2022/05/18 07:00:32;;;;;;;1.67;1.58;;;;;;;12.66;100.00;100214.16;5114322;28;20639;-76
2022/05/18 07:02:58;;;;;;;7.50;3.05;;;;;;;12.85;100.00;100188.28;5094999;28;20212;-74
2022/05/18 07:05:27;;;;;;;1.67;1.65;;;;;;;12.67;100.00;100218.47;5114682;28;20189;-75
2022/05/18 07:07:54;;;;;;;1.90;1.80;;;;;;;12.37;100.00;100222.56;5114518;28;20193;-75
2022/05/18 07:10:21;;;;;;;2.35;2.25;;;;;;;12.55;100.00;100226.19;5114373;28;20649;-75
2022/05/18 07:12:47;;;;;;;1.70;1.67;;;;;;;12.36;100.00;100243.31;5107586;28;20198;-75
2022/05/18 07:15:14;;;;;;;1.70;1.60;;;;;;;12.25;100.00;100242.34;5094387;28;20255;-74
2022/05/18 07:17:42;;;;;;;1.48;1.38;;;;;;;12.05;100.00;100239.53;5095402;28;20654;-75
2022/05/18 07:20:10;;;;;;;7.00;1.80;;;;;;;12.18;100.00;100254.41;5075807;28;20206;-75
2022/05/18 07:22:38;;;;;;;3.90;2.00;;;;;;;12.01;100.00;100211.75;5092431;28;20213;-75
2022/05/18 07:25:05;;;;;;;1.30;1.30;;;;;;;12.27;100.00;100258.84;5114429;28;20197;-75
2022/05/18 07:27:32;;;;;;;4.28;1.73;;;;;;;12.25;100.00;100248.41;5044643;28;20697;-75
2022/05/18 07:29:59;;;;;;;4.53;1.73;;;;;;;12.30;100.00;100264.94;5114126;28;20685;-75
2022/05/18 07:32:26;;;;;;;1.77;1.67;;;;;;;12.35;100.00;100271.03;5077754;28;20197;-75
2022/05/18 07:34:53;;;;;;;2.00;1.80;;;;;;;12.43;100.00;100287.63;5113457;28;20205;-75
2022/05/18 07:37:20;;;;;;;1.95;1.85;;;;;;;12.13;100.00;100201.47;5113078;28;20286;-76
2022/05/18 07:39:48;;;;;;;3.38;1.90;;;;;;;12.51;100.00;100294.63;5113259;28;20258;-76
2022/05/18 07:42:15;;;;;;;3.17;1.63;;;;;;;12.49;100.00;100301.53;5113238;28;20208;-76
2022/05/18 07:44:42;;;;;;;2.33;2.00;;;;;;;12.51;100.00;100305.91;5113004;28;20201;-75
2022/05/18 07:47:09;;;;;;;4.38;2.38;;;;;;;12.69;100.00;100305.22;5112940;28;20193;-77
2022/05/18 07:49:36;;;;;;;8.57;2.00;;;;;;;12.74;100.00;100303.50;5112808;28;20225;-75
2022/05/18 07:52:04;;;;;;;1.77;1.67;;;;;;;12.56;100.00;100317.22;5112826;28;20197;-75
2022/05/18 07:54:31;;;;;;;3.30;1.85;;;;;;;12.40;100.00;100300.59;5112859;28;20642;-75
2022/05/18 07:56:59;;;;;;;2.28;1.50;;;;;;;12.47;100.00;100329.25;5112618;28;20212;-76
2022/05/18 07:59:26;;;;;;;4.30;1.90;;;;;;;12.52;100.00;100306.78;5112700;28;20197;-75
2022/05/18 08:01:53;;;;;;;3.35;2.30;;;;;;;12.88;100.00;100322.72;5112714;28;20198;-76
2022/05/18 08:04:20;;;;;;;3.17;1.38;;;;;;;12.96;100.00;100313.28;5112973;28;20204;-77
2022/05/18 08:06:47;;;;;;;9.38;2.28;;;;;;;12.52;100.00;100265.16;5112660;28;20200;-76
2022/05/18 08:09:15;;;;;;;5.15;2.30;;;;;;;12.80;100.00;100329.63;5112503;28;20224;-76
2022/05/18 08:17:12;;;;;;;5.63;2.15;;;;;;;12.26;100.00;100320.34;5112385;28;20302;-76
2022/05/18 08:19:38;;;;;;;2.78;2.08;;;;;;;12.61;100.00;100380.56;5112396;28;20689;-75
2022/05/18 08:22:06;;;;;;;2.35;2.13;;;;;;;12.96;100.00;100388.75;5112194;28;20247;-74
2022/05/18 08:24:33;;;;;;;6.28;1.73;;;;;;;12.43;100.00;100399.44;5112262;28;20587;-75
2022/05/18 08:26:59;;;;;;;3.10;2.00;;;;;;;12.47;100.00;100382.13;5109786;28;20613;-76
2022/05/18 08:29:27;;;;;;;1.80;1.70;;;;;;;12.31;100.00;100396.66;5112013;28;20738;-77
2022/05/18 08:31:56;;;;;;;1.70;1.60;;;;;;;12.37;100.00;100406.28;5112153;28;20212;-76
2022/05/18 08:34:22;;;;;;;4.28;2.13;;;;;;;12.50;100.00;100397.78;5112027;28;20194;-75
2022/05/18 08:36:49;;;;;;;2.47;2.28;;;;;;;12.52;100.00;100393.44;5111876;28;20233;-75
2022/05/18 08:39:16;;;;;;;7.03;1.90;;;;;;;12.43;100.00;100389.03;5111659;28;20229;-74
2022/05/18 08:41:45;;;;;;;3.95;2.47;;;;;;;12.42;100.00;100383.81;5112107;28;20200;-75
2022/05/18 08:44:27;;;;;;;2.92;1.90;;;;;;;12.48;100.00;100367.41;5112042;28;20225;-74
2022/05/18 08:47:09;;;;;;;3.75;2.65;;;;;;;12.54;100.00;100393.50;5111734;28;20280;-75
2022/05/18 08:49:41;;;;;;;2.28;2.13;;;;;;;12.39;100.00;100404.56;5111604;28;20229;-75
2022/05/18 08:52:30;;;;;;;2.15;1.85;;;;;;;12.47;100.00;100413.34;5111689;28;20254;-75
2022/05/18 08:55:27;;;;;;;4.20;2.25;;;;;;;12.60;100.00;100414.34;5111560;28;20198;-76
2022/05/18 08:57:57;;;;;;;4.05;2.10;;;;;;;12.18;100.00;100405.16;5111692;28;20271;-76
2022/05/18 09:00:29;;;;;;;3.90;1.60;;;;;;;12.25;100.00;100427.78;5093065;28;20201;-77
2022/05/18 09:03:01;;;;;;;2.20;2.00;;;;;;;12.34;100.00;100450.47;5111554;28;20644;-77
2022/05/18 09:05:34;;;;;;;2.15;2.00;;;;;;;12.36;100.00;100464.34;5111810;28;20194;-76
2022/05/18 09:08:07;;;;;;;6.90;2.20;;;;;;;12.27;100.00;100459.88;5111325;28;20201;-78
2022/05/18 09:10:40;;;;;;;1.52;1.50;;;;;;;12.12;100.00;100428.50;5111265;28;20220;-77
2022/05/18 09:13:06;;;;;;;5.05;1.70;;;;;;;12.39;100.00;100472.19;5111459;28;20190;-77
2022/05/18 09:15:39;;;;;;;2.03;1.50;;;;;;;12.65;100.00;100494.22;5111504;28;20204;-76
2022/05/18 09:18:17;;;;;;;4.68;1.63;;;;;;;12.73;100.00;100504.72;5111545;28;20197;-77
2022/05/18 09:20:48;;;;;;;2.67;2.03;;;;;;;12.49;100.00;100478.38;5111146;28;20205;-76
2022/05/18 09:23:50;;;;;;;5.78;1.60;;;;;;;12.86;100.00;100520.53;5111390;28;20712;-77
2022/05/18 09:26:34;;;;;;;6.13;1.55;;;;;;;12.61;100.00;100530.56;5048226;28;20304;-75
2022/05/18 09:29:11;;;;;;;1.80;1.65;;;;;;;12.93;100.00;100509.34;5048076;28;20232;-77
2022/05/18 09:31:57;;;;;;;5.03;1.60;;;;;;;12.91;100.00;100526.63;5048264;28;20289;-77
2022/05/18 09:34:46;;;;;;;1.90;1.75;;;;;;;12.84;100.00;100534.38;5047849;28;20191;-76
2022/05/18 09:37:30;;;;;;;11.10;1.73;;;;;;;12.90;100.00;100537.94;5047827;28;20227;-77
2022/05/18 09:40:02;;;;;;;7.25;1.58;;;;;;;12.98;100.00;100535.44;5048022;28;20239;-75
2022/05/18 09:42:33;;;;;;;5.95;2.20;;;;;;;13.15;100.00;100549.53;5048009;28;20195;-75
2022/05/18 09:45:05;;;;;;;2.28;2.00;;;;;;;13.48;100.00;100545.59;5047878;28;20231;-75
2022/05/18 09:47:38;;;;;;;2.42;2.03;;;;;;;13.65;100.00;100539.69;5047645;28;20282;-75
2022/05/18 09:50:09;;;;;;;1.75;1.65;;;;;;;13.52;100.00;100549.97;5047819;28;20645;-74
2022/05/18 09:52:38;;;;;;;2.00;1.52;;;;;;;13.32;100.00;100558.44;5031191;28;20200;-75
2022/05/18 09:55:08;;;;;;;2.35;2.00;;;;;;;12.73;100.00;100548.97;5047898;28;20196;-75
2022/05/18 09:57:40;;;;;;;6.45;2.30;;;;;;;12.91;100.00;100594.31;5047831;28;20203;-74
2022/05/18 10:00:11;;;;;;;2.47;2.13;;;;;;;12.50;100.00;100573.75;5047775;28;20199;-75
2022/05/18 10:08:14;;;;;;;1.50;1.40;;;;;;;12.62;100.00;100605.16;5110653;28;20201;-76
2022/05/18 10:10:42;;;;;;;6.78;2.25;;;;;;;12.97;100.00;100603.06;5110608;28;20220;-76
2022/05/18 10:13:13;;;;;;;5.13;2.40;;;;;;;13.27;100.00;100593.94;5110878;28;20284;-76
2022/05/18 10:15:44;;;;;;;2.50;2.30;;;;;;;13.47;100.00;100594.19;5110644;28;20665;-75
2022/05/18 10:18:16;;;;;;;7.03;2.70;;;;;;;13.55;100.00;100568.22;5110622;28;20209;-78
2022/05/18 10:21:01;;;;;;;4.90;2.88;;;;;;;13.53;100.00;100596.84;5074483;28;20202;-77
2022/05/18 10:23:34;;;;;;;6.30;2.15;;;;;;;13.63;100.00;100623.88;5110423;28;20204;-75
2022/05/18 10:26:03;;;;;;;7.47;2.00;;;;;;;13.40;100.00;100631.44;5110749;28;20202;-75
2022/05/18 10:28:31;;;;;;;3.53;1.90;;;;;;;13.23;100.00;100633.84;5110585;28;20193;-75
2022/05/18 10:31:01;;;;;;;1.80;1.70;;;;;;;12.86;100.00;100623.75;5110299;28;20228;-77
2022/05/18 10:33:33;;;;;;;2.53;2.10;;;;;;;13.01;100.00;100610.94;5110392;28;20194;-77
2022/05/18 10:36:11;;;;;;;1.92;1.70;;;;;;;13.27;100.00;100647.78;5110336;28;20276;-76
2022/05/18 10:38:48;;;;;;;5.07;2.10;;;;;;;13.26;100.00;100652.13;5110483;28;20198;-76
2022/05/18 10:41:17;;;;;;;6.15;1.98;;;;;;;13.48;100.00;100666.28;5110305;28;20752;-75
2022/05/18 10:43:47;;;;;;;11.10;2.00;;;;;;;13.60;100.00;100673.34;5110148;28;20201;-75
2022/05/18 10:46:19;;;;;;;5.65;2.30;;;;;;;13.66;100.00;100676.06;5110322;28;20206;-75
2022/05/18 10:48:56;;;;;;;1.85;1.23;;;;;;;13.55;100.00;100683.75;5113531;28;20201;-76
2022/05/18 10:51:32;;;;;;;5.20;1.88;;;;;;;13.52;100.00;100682.84;5077841;28;20220;-76
2022/05/18 10:54:12;;;;;;;6.35;2.72;;;;;;;13.72;100.00;100676.13;5113841;28;20668;-73
2022/05/18 10:56:39;;;;;;;4.65;1.90;;;;;;;13.52;100.00;100680.22;5113920;28;20261;-74
2022/05/18 10:59:19;;;;;;;5.75;2.13;;;;;;;13.37;100.00;100673.97;5113905;28;20193;-75
2022/05/18 11:01:54;;;;;;;2.05;1.90;;;;;;;13.38;100.00;100675.69;5079437;28;20197;-74
2022/05/18 11:04:28;;;;;;;2.00;1.88;;;;;;;13.59;100.00;100679.44;5113536;28;20193;-75
2022/05/18 11:06:56;;;;;;;2.10;1.98;;;;;;;13.66;100.00;100676.06;5113515;28;20289;-75
2022/05/18 11:09:29;;;;;;;5.75;1.63;;;;;;;13.64;100.00;100675.16;5113916;28;20266;-75
2022/05/18 11:12:05;;;;;;;2.03;1.92;;;;;;;14.00;100.00;100664.25;5113785;28;20217;-75
2022/05/18 11:14:41;;;;;;;2.22;2.00;;;;;;;14.29;100.00;100671.53;5113548;28;20749;-74
2022/05/18 11:17:25;;;;;;;6.22;2.30;;;;;;;14.93;100.00;100677.31;5113425;28;20208;-75
2022/05/18 11:20:02;;;;;;;6.53;2.53;;;;;;;14.73;100.00;100658.88;5113277;28;20283;-75
2022/05/18 11:22:37;;;;;;;5.07;2.00;;;;;;;15.00;100.00;100689.53;5113502;28;20743;-75
2022/05/18 11:25:14;;;;;;;7.72;2.72;;;;;;;15.00;100.00;100680.81;5113099;28;20705;-74
2022/05/18 11:27:49;;;;;;;2.70;2.50;;;;;;;14.84;100.00;100679.81;5078919;28;20205;-75
2022/05/18 11:30:20;;;;;;;3.55;2.40;;;;;;;14.41;100.00;100685.59;5112880;28;20236;-74
2022/05/18 11:33:01;;;;;;;7.75;2.45;;;;;;;14.85;100.00;100690.28;5113191;28;20730;-75
2022/05/18 11:35:47;;;;;;;2.42;2.05;;;;;;;14.97;100.00;100697.34;5113104;28;20201;-74
2022/05/18 11:38:33;;;;;;;3.72;2.33;;;;;;;14.52;100.00;100683.94;5112770;28;20308;-75
2022/05/18 11:41:11;;;;;;;4.10;2.10;;;;;;;14.34;100.00;100701.16;5113080;28;20664;-74
2022/05/18 11:43:53;;;;;;;2.10;1.92;;;;;;;14.19;100.00;100701.00;5113117;28;20250;-74
2022/05/18 11:46:45;;;;;;;4.95;2.15;;;;;;;14.68;100.00;100706.69;5112710;28;20222;-74
2022/05/18 11:49:18;;;;;;;8.80;2.38;;;;;;;14.74;100.00;100691.06;5112880;28;20847;-74
2022/05/18 11:52:08;;;;;;;2.90;2.17;;;;;;;14.58;100.00;100715.31;5112577;28;20221;-76